sensor_id;sensor_type;location;lat;lon;timestamp;pressure;altitude;pressure_sealevel;temperature;humidity
48204;BME280;33994;50.998;5.864;2023-02-26T00:02:09;101223.38;;;0.54;70.16
48204;BME280;33994;50.998;5.864;2023-02-26T00:05:15;101226.72;;;0.52;70.45
48204;BME280;33994;50.998;5.864;2023-02-26T00:08:18;101230.09;;;0.49;71.13
48204;BME280;33994;50.998;5.864;2023-02-26T00:11:21;101233.47;;;0.48;71.35
48204;BME280;33994;50.998;5.864;2023-02-26T00:14:25;101232.59;;;0.48;71.46
48204;BME280;33994;50.998;5.864;2023-02-26T00:17:35;101238.50;;;0.45;71.02
48204;BME280;33994;50.998;5.864;2023-02-26T00:20:41;101244.44;;;0.42;71.70
48204;BME280;33994;50.998;5.864;2023-02-26T00:23:44;101255.63;;;0.43;71.47
48204;BME280;33994;50.998;5.864;2023-02-26T00:26:47;101257.22;;;0.39;71.45
48204;BME280;33994;50.998;5.864;2023-02-26T00:29:51;101255.66;;;0.44;71.45
48204;BME280;33994;50.998;5.864;2023-02-26T00:32:55;101264.16;;;0.42;71.81
48204;BME280;33994;50.998;5.864;2023-02-26T00:36:05;101272.69;;;0.41;71.90
48204;BME280;33994;50.998;5.864;2023-02-26T00:39:32;101283.78;;;0.38;72.00
48204;BME280;33994;50.998;5.864;2023-02-26T00:42:38;101278.63;;;0.38;71.64
48204;BME280;33994;50.998;5.864;2023-02-26T00:45:46;101274.25;;;0.36;71.98
48204;BME280;33994;50.998;5.864;2023-02-26T00:48:54;101286.19;;;0.34;72.38
48204;BME280;33994;50.998;5.864;2023-02-26T00:52:05;101282.56;;;0.29;72.52
48204;BME280;33994;50.998;5.864;2023-02-26T00:55:12;101284.13;;;0.24;72.26
48204;BME280;33994;50.998;5.864;2023-02-26T00:58:15;101280.53;;;0.18;72.79
48204;BME280;33994;50.998;5.864;2023-02-26T01:01:19;101275.19;;;0.14;73.04
48204;BME280;33994;50.998;5.864;2023-02-26T01:04:23;101270.00;;;0.12;73.61
48204;BME280;33994;50.998;5.864;2023-02-26T01:07:28;101273.41;;;0.11;73.59
48204;BME280;33994;50.998;5.864;2023-02-26T01:10:33;101280.19;;;0.09;74.16
48204;BME280;33994;50.998;5.864;2023-02-26T01:13:36;101291.19;;;0.05;74.09
48204;BME280;33994;50.998;5.864;2023-02-26T01:16:55;101294.59;;;0.04;74.63
48204;BME280;33994;50.998;5.864;2023-02-26T01:20:01;101292.91;;;0.05;74.32
48204;BME280;33994;50.998;5.864;2023-02-26T01:23:09;101295.44;;;0.03;74.72
48204;BME280;33994;50.998;5.864;2023-02-26T01:26:20;101296.34;;;0.05;74.30
48204;BME280;33994;50.998;5.864;2023-02-26T01:29:24;101288.50;;;0.02;75.83
48204;BME280;33994;50.998;5.864;2023-02-26T01:32:37;101281.75;;;0.04;75.01
48204;BME280;33994;50.998;5.864;2023-02-26T01:35:47;101292.03;;;0.04;75.12
48204;BME280;33994;50.998;5.864;2023-02-26T01:38:59;101285.16;;;0.03;75.30
48204;BME280;33994;50.998;5.864;2023-02-26T01:42:09;101292.91;;;0.05;75.71
48204;BME280;33994;50.998;5.864;2023-02-26T01:45:16;101299.78;;;0.06;75.36
48204;BME280;33994;50.998;5.864;2023-02-26T01:48:35;101295.44;;;0.03;75.71
48204;BME280;33994;50.998;5.864;2023-02-26T01:51:42;101293.78;;;0.05;75.59
48204;BME280;33994;50.998;5.864;2023-02-26T01:54:47;101299.03;;;0.08;76.19
48204;BME280;33994;50.998;5.864;2023-02-26T01:57:54;101304.28;;;0.11;75.79
48204;BME280;33994;50.998;5.864;2023-02-26T02:00:59;101302.50;;;0.10;75.44
48204;BME280;33994;50.998;5.864;2023-02-26T02:04:03;101302.59;;;0.12;75.63
48204;BME280;33994;50.998;5.864;2023-02-26T02:07:08;101309.44;;;0.11;76.54
48204;BME280;33994;50.998;5.864;2023-02-26T02:10:13;101305.97;;;0.11;76.02
48204;BME280;33994;50.998;5.864;2023-02-26T02:13:25;101310.22;;;0.10;76.43
48204;BME280;33994;50.998;5.864;2023-02-26T02:16:39;101312.03;;;0.13;76.26
48204;BME280;33994;50.998;5.864;2023-02-26T02:20:03;101316.28;;;0.11;76.31
48204;BME280;33994;50.998;5.864;2023-02-26T02:23:16;101317.94;;;0.10;76.21
48204;BME280;33994;50.998;5.864;2023-02-26T02:27:00;101320.63;;;0.13;76.47
48204;BME280;33994;50.998;5.864;2023-02-26T02:30:16;101331.03;;;0.16;76.89
48204;BME280;33994;50.998;5.864;2023-02-26T02:33:30;101325.84;;;0.15;76.54
48204;BME280;33994;50.998;5.864;2023-02-26T02:36:39;101330.09;;;0.14;76.60
48204;BME280;33994;50.998;5.864;2023-02-26T02:39:46;101331.75;;;0.12;76.26
48204;BME280;33994;50.998;5.864;2023-02-26T02:42:56;101335.16;;;0.11;76.37
48204;BME280;33994;50.998;5.864;2023-02-26T02:46:03;101334.31;;;0.12;76.73
48204;BME280;33994;50.998;5.864;2023-02-26T02:49:10;101334.28;;;0.11;76.72
48204;BME280;33994;50.998;5.864;2023-02-26T02:54:37;101338.59;;;0.12;76.74
48204;BME280;33994;50.998;5.864;2023-02-26T02:57:45;101341.91;;;0.09;75.96
48204;BME280;33994;50.998;5.864;2023-02-26T03:00:54;101342.59;;;0.04;76.23
48204;BME280;33994;50.998;5.864;2023-02-26T03:04:04;101348.38;;;-0.02;76.46
48204;BME280;33994;50.998;5.864;2023-02-26T03:07:09;101352.41;;;-0.09;75.86
48204;BME280;33994;50.998;5.864;2023-02-26T03:10:14;101353.06;;;-0.14;76.60
48204;BME280;33994;50.998;5.864;2023-02-26T03:13:18;101368.47;;;-0.16;76.54
48204;BME280;33994;50.998;5.864;2023-02-26T03:16:32;101368.34;;;-0.19;77.01
48204;BME280;33994;50.998;5.864;2023-02-26T03:19:45;101367.28;;;-0.24;76.90
48204;BME280;33994;50.998;5.864;2023-02-26T03:23:08;101377.97;;;-0.36;77.71
48204;BME280;33994;50.998;5.864;2023-02-26T03:26:18;101385.63;;;-0.37;77.20
48204;BME280;33994;50.998;5.864;2023-02-26T03:29:27;101388.16;;;-0.39;77.94
48204;BME280;33994;50.998;5.864;2023-02-26T03:32:40;101388.06;;;-0.40;78.14
48204;BME280;33994;50.998;5.864;2023-02-26T03:35:48;101386.94;;;-0.47;78.51
48204;BME280;33994;50.998;5.864;2023-02-26T03:38:56;101393.00;;;-0.46;77.91
48204;BME280;33994;50.998;5.864;2023-02-26T03:42:05;101390.59;;;-0.42;78.40
48204;BME280;33994;50.998;5.864;2023-02-26T03:45:13;101395.75;;;-0.42;78.10
48204;BME280;33994;50.998;5.864;2023-02-26T03:48:22;101405.25;;;-0.39;78.69
48204;BME280;33994;50.998;5.864;2023-02-26T03:51:28;101409.22;;;-0.47;78.66
48204;BME280;33994;50.998;5.864;2023-02-26T03:54:34;101412.56;;;-0.50;78.71
48204;BME280;33994;50.998;5.864;2023-02-26T03:57:41;101420.13;;;-0.53;78.65
48204;BME280;33994;50.998;5.864;2023-02-26T04:00:48;101420.19;;;-0.52;78.99
48204;BME280;33994;50.998;5.864;2023-02-26T04:03:52;101417.41;;;-0.58;79.32
48204;BME280;33994;50.998;5.864;2023-02-26T04:06:59;101419.88;;;-0.59;79.10
48204;BME280;33994;50.998;5.864;2023-02-26T04:10:02;101430.25;;;-0.58;79.10
48204;BME280;33994;50.998;5.864;2023-02-26T04:13:07;101430.28;;;-0.56;79.46
48204;BME280;33994;50.998;5.864;2023-02-26T04:16:11;101432.38;;;-0.68;79.50
48204;BME280;33994;50.998;5.864;2023-02-26T04:19:14;101438.94;;;-0.75;79.74
48204;BME280;33994;50.998;5.864;2023-02-26T04:22:18;101431.94;;;-0.79;79.73
48204;BME280;33994;50.998;5.864;2023-02-26T04:25:21;101439.59;;;-0.81;79.88
48204;BME280;33994;50.998;5.864;2023-02-26T04:28:26;101448.09;;;-0.82;80.14
48204;BME280;33994;50.998;5.864;2023-02-26T04:31:29;101452.16;;;-0.87;81.16
48204;BME280;33994;50.998;5.864;2023-02-26T04:34:32;101459.88;;;-0.87;81.14
48204;BME280;33994;50.998;5.864;2023-02-26T04:37:35;101458.00;;;-0.91;81.56
48204;BME280;33994;50.998;5.864;2023-02-26T04:40:38;101463.00;;;-0.94;81.06
48204;BME280;33994;50.998;5.864;2023-02-26T04:43:43;101469.63;;;-0.99;81.83
48204;BME280;33994;50.998;5.864;2023-02-26T04:46:46;101471.25;;;-1.01;82.01
48204;BME280;33994;50.998;5.864;2023-02-26T04:49:49;101473.81;;;-1.01;82.38
48204;BME280;33994;50.998;5.864;2023-02-26T04:52:52;101472.88;;;-1.03;82.34
48204;BME280;33994;50.998;5.864;2023-02-26T04:55:55;101475.38;;;-1.05;82.80
48204;BME280;33994;50.998;5.864;2023-02-26T04:59:00;101474.38;;;-1.08;82.52
48204;BME280;33994;50.998;5.864;2023-02-26T05:02:03;101473.44;;;-1.10;83.07
48204;BME280;33994;50.998;5.864;2023-02-26T05:05:07;101478.63;;;-1.09;83.02
48204;BME280;33994;50.998;5.864;2023-02-26T05:08:10;101480.28;;;-1.11;82.82
48204;BME280;33994;50.998;5.864;2023-02-26T05:11:14;101476.88;;;-1.10;82.60
48204;BME280;33994;50.998;5.864;2023-02-26T05:14:18;101485.19;;;-1.15;82.68
48204;BME280;33994;50.998;5.864;2023-02-26T05:17:22;101488.50;;;-1.18;82.89
48204;BME280;33994;50.998;5.864;2023-02-26T05:20:25;101494.38;;;-1.20;82.65
48204;BME280;33994;50.998;5.864;2023-02-26T05:23:28;101490.75;;;-1.26;82.79
48204;BME280;33994;50.998;5.864;2023-02-26T05:26:32;101507.16;;;-1.22;82.89
48204;BME280;33994;50.998;5.864;2023-02-26T05:29:36;101509.78;;;-1.20;82.56
48204;BME280;33994;50.998;5.864;2023-02-26T05:32:39;101512.22;;;-1.23;82.33
48204;BME280;33994;50.998;5.864;2023-02-26T05:35:43;101517.28;;;-1.25;82.24
48204;BME280;33994;50.998;5.864;2023-02-26T05:38:46;101523.00;;;-1.31;82.62
48204;BME280;33994;50.998;5.864;2023-02-26T05:41:49;101522.91;;;-1.34;82.26
48204;BME280;33994;50.998;5.864;2023-02-26T05:44:54;101523.56;;;-1.38;82.43
48204;BME280;33994;50.998;5.864;2023-02-26T05:47:56;101527.06;;;-1.36;82.52
48204;BME280;33994;50.998;5.864;2023-02-26T05:51:00;101534.78;;;-1.36;82.21
48204;BME280;33994;50.998;5.864;2023-02-26T05:54:03;101537.13;;;-1.40;82.19
48204;BME280;33994;50.998;5.864;2023-02-26T05:57:06;101549.16;;;-1.39;81.98
48204;BME280;33994;50.998;5.864;2023-02-26T06:00:11;101550.91;;;-1.38;81.55
48204;BME280;33994;50.998;5.864;2023-02-26T06:03:14;101554.91;;;-1.45;81.40
48204;BME280;33994;50.998;5.864;2023-02-26T06:06:17;101556.66;;;-1.44;81.44
48204;BME280;33994;50.998;5.864;2023-02-26T06:09:20;101564.34;;;-1.44;81.51
48204;BME280;33994;50.998;5.864;2023-02-26T06:12:23;101569.34;;;-1.47;81.42
48204;BME280;33994;50.998;5.864;2023-02-26T06:15:28;101570.16;;;-1.48;81.13
48204;BME280;33994;50.998;5.864;2023-02-26T06:18:31;101571.75;;;-1.50;81.24
48204;BME280;33994;50.998;5.864;2023-02-26T06:21:34;101570.88;;;-1.51;81.16
48204;BME280;33994;50.998;5.864;2023-02-26T06:24:37;101594.84;;;-1.50;80.75
48204;BME280;33994;50.998;5.864;2023-02-26T06:27:40;101587.16;;;-1.50;80.87
48204;BME280;33994;50.998;5.864;2023-02-26T06:30:52;101597.41;;;-1.50;80.42
48204;BME280;33994;50.998;5.864;2023-02-26T06:33:55;101604.31;;;-1.49;80.68
48204;BME280;33994;50.998;5.864;2023-02-26T06:36:58;101606.59;;;-1.55;80.60
48204;BME280;33994;50.998;5.864;2023-02-26T06:40:20;101609.16;;;-1.55;80.84
48204;BME280;33994;50.998;5.864;2023-02-26T06:43:23;101615.31;;;-1.52;80.42
48204;BME280;33994;50.998;5.864;2023-02-26T06:46:28;101624.69;;;-1.52;80.18
48204;BME280;33994;50.998;5.864;2023-02-26T06:49:31;101622.13;;;-1.52;80.01
48204;BME280;33994;50.998;5.864;2023-02-26T06:52:34;101635.97;;;-1.48;80.05
48204;BME280;33994;50.998;5.864;2023-02-26T06:55:42;101632.66;;;-1.46;80.00
48204;BME280;33994;50.998;5.864;2023-02-26T06:58:45;101636.72;;;-1.51;79.83
48204;BME280;33994;50.998;5.864;2023-02-26T07:01:49;101647.84;;;-1.51;79.55
48204;BME280;33994;50.998;5.864;2023-02-26T07:04:52;101640.25;;;-1.49;79.58
48204;BME280;33994;50.998;5.864;2023-02-26T07:07:55;101652.47;;;-1.43;79.69
48204;BME280;33994;50.998;5.864;2023-02-26T07:10:58;101659.59;;;-1.38;79.25
48204;BME280;33994;50.998;5.864;2023-02-26T07:14:02;101660.66;;;-1.33;79.29
48204;BME280;33994;50.998;5.864;2023-02-26T07:17:06;101661.69;;;-1.29;79.17
48204;BME280;33994;50.998;5.864;2023-02-26T07:20:10;101666.56;;;-1.16;78.85
48204;BME280;33994;50.998;5.864;2023-02-26T07:23:13;101666.91;;;-1.08;78.46
48204;BME280;33994;50.998;5.864;2023-02-26T07:26:17;101677.19;;;-1.08;78.00
48204;BME280;33994;50.998;5.864;2023-02-26T07:29:20;101680.72;;;-1.06;78.25
48204;BME280;33994;50.998;5.864;2023-02-26T07:32:24;101682.63;;;-1.02;77.77
48204;BME280;33994;50.998;5.864;2023-02-26T07:35:27;101693.75;;;-1.02;77.76
48204;BME280;33994;50.998;5.864;2023-02-26T07:38:31;101693.03;;;-0.99;77.23
48204;BME280;33994;50.998;5.864;2023-02-26T07:41:34;101695.75;;;-0.96;77.44
48204;BME280;33994;50.998;5.864;2023-02-26T07:44:37;101710.34;;;-0.95;77.64
48204;BME280;33994;50.998;5.864;2023-02-26T07:47:41;101708.66;;;-0.94;76.98
48204;BME280;33994;50.998;5.864;2023-02-26T07:50:45;101724.66;;;-1.00;77.27
48204;BME280;33994;50.998;5.864;2023-02-26T07:53:49;101727.16;;;-1.02;77.05
48204;BME280;33994;50.998;5.864;2023-02-26T07:56:52;101726.56;;;-0.96;76.89
48204;BME280;33994;50.998;5.864;2023-02-26T07:59:55;101739.00;;;-0.86;77.13
48204;BME280;33994;50.998;5.864;2023-02-26T08:02:59;101743.41;;;-0.83;76.72
48204;BME280;33994;50.998;5.864;2023-02-26T08:06:03;101746.03;;;-0.82;76.39
48204;BME280;33994;50.998;5.864;2023-02-26T08:09:07;101748.09;;;-0.74;75.90
48204;BME280;33994;50.998;5.864;2023-02-26T08:12:09;101757.25;;;-0.62;75.77
48204;BME280;33994;50.998;5.864;2023-02-26T08:15:12;101756.47;;;-0.59;75.77
48204;BME280;33994;50.998;5.864;2023-02-26T08:18:17;101764.47;;;-0.53;75.31
48204;BME280;33994;50.998;5.864;2023-02-26T08:21:19;101761.78;;;-0.56;74.74
48204;BME280;33994;50.998;5.864;2023-02-26T08:24:22;101764.47;;;-0.53;74.92
48204;BME280;33994;50.998;5.864;2023-02-26T08:27:25;101762.44;;;-0.60;74.30
48204;BME280;33994;50.998;5.864;2023-02-26T08:30:29;101771.84;;;-0.61;74.26
48204;BME280;33994;50.998;5.864;2023-02-26T08:33:33;101773.78;;;-0.55;74.53
48204;BME280;33994;50.998;5.864;2023-02-26T08:36:36;101783.63;;;-0.46;74.70
48204;BME280;33994;50.998;5.864;2023-02-26T08:39:40;101784.38;;;-0.49;74.10
48204;BME280;33994;50.998;5.864;2023-02-26T08:42:43;101784.50;;;-0.46;73.66
48204;BME280;33994;50.998;5.864;2023-02-26T08:45:46;101787.28;;;-0.41;73.88
48204;BME280;33994;50.998;5.864;2023-02-26T08:48:50;101798.44;;;-0.41;73.21
48204;BME280;33994;50.998;5.864;2023-02-26T08:51:54;101789.13;;;-0.39;73.76
48204;BME280;33994;50.998;5.864;2023-02-26T08:54:57;101797.09;;;-0.33;73.21
48204;BME280;33994;50.998;5.864;2023-02-26T08:58:00;101808.34;;;-0.31;72.80
48204;BME280;33994;50.998;5.864;2023-02-26T09:01:03;101811.69;;;-0.32;72.85
48204;BME280;33994;50.998;5.864;2023-02-26T09:04:07;101810.44;;;-0.22;72.68
48204;BME280;33994;50.998;5.864;2023-02-26T09:07:10;101812.38;;;-0.16;72.15
48204;BME280;33994;50.998;5.864;2023-02-26T09:10:14;101828.09;;;-0.10;71.92
48204;BME280;33994;50.998;5.864;2023-02-26T09:13:17;101830.13;;;-0.03;72.26
48204;BME280;33994;50.998;5.864;2023-02-26T09:16:21;101840.69;;;0.03;71.84
48204;BME280;33994;50.998;5.864;2023-02-26T09:19:25;101838.38;;;0.09;71.98
48204;BME280;33994;50.998;5.864;2023-02-26T09:22:28;101843.47;;;0.08;71.39
48204;BME280;33994;50.998;5.864;2023-02-26T09:25:31;101851.25;;;0.09;71.08
48204;BME280;33994;50.998;5.864;2023-02-26T09:28:34;101852.25;;;0.13;70.91
48204;BME280;33994;50.998;5.864;2023-02-26T09:31:37;101859.16;;;0.14;69.80
48204;BME280;33994;50.998;5.864;2023-02-26T09:34:42;101849.72;;;0.14;69.59
48204;BME280;33994;50.998;5.864;2023-02-26T09:37:45;101871.41;;;0.19;69.08
48204;BME280;33994;50.998;5.864;2023-02-26T09:40:52;101867.88;;;0.17;68.53
48204;BME280;33994;50.998;5.864;2023-02-26T09:44:08;101874.38;;;0.29;68.78
48204;BME280;33994;50.998;5.864;2023-02-26T09:47:18;101890.09;;;0.35;68.77
48204;BME280;33994;50.998;5.864;2023-02-26T09:50:30;101876.34;;;0.34;68.76
48204;BME280;33994;50.998;5.864;2023-02-26T09:53:38;101876.41;;;0.36;68.59
48204;BME280;33994;50.998;5.864;2023-02-26T09:56:43;101879.94;;;0.38;68.28
48204;BME280;33994;50.998;5.864;2023-02-26T09:59:48;101890.25;;;0.38;67.31
48204;BME280;33994;50.998;5.864;2023-02-26T10:02:59;101895.97;;;0.32;66.20
48204;BME280;33994;50.998;5.864;2023-02-26T10:06:15;101896.94;;;0.34;66.48
48204;BME280;33994;50.998;5.864;2023-02-26T10:09:50;101909.94;;;0.37;64.84
48204;BME280;33994;50.998;5.864;2023-02-26T10:12:56;101906.69;;;0.41;64.82
48204;BME280;33994;50.998;5.864;2023-02-26T10:16:04;101901.66;;;0.44;64.38
48204;BME280;33994;50.998;5.864;2023-02-26T10:19:12;101903.69;;;0.52;63.86
48204;BME280;33994;50.998;5.864;2023-02-26T10:22:23;101911.69;;;0.58;64.11
48204;BME280;33994;50.998;5.864;2023-02-26T10:25:33;101918.09;;;0.67;63.71
48204;BME280;33994;50.998;5.864;2023-02-26T10:28:47;101921.97;;;0.77;64.37
48204;BME280;33994;50.998;5.864;2023-02-26T10:32:08;101925.22;;;0.94;63.44
48204;BME280;33994;50.998;5.864;2023-02-26T10:35:17;101922.09;;;1.01;61.71
48204;BME280;33994;50.998;5.864;2023-02-26T10:38:24;101916.38;;;1.08;61.67
48204;BME280;33994;50.998;5.864;2023-02-26T10:41:30;101922.84;;;1.19;62.44
48204;BME280;33994;50.998;5.864;2023-02-26T10:44:39;101911.81;;;1.22;61.95
48204;BME280;33994;50.998;5.864;2023-02-26T10:47:52;101912.56;;;1.19;59.59
48204;BME280;33994;50.998;5.864;2023-02-26T10:51:05;101931.47;;;1.20;59.87
48204;BME280;33994;50.998;5.864;2023-02-26T10:54:17;101922.38;;;1.07;59.17
48204;BME280;33994;50.998;5.864;2023-02-26T10:57:26;101933.28;;;1.02;60.14
48204;BME280;33994;50.998;5.864;2023-02-26T11:00:30;101931.47;;;0.99;60.43
48204;BME280;33994;50.998;5.864;2023-02-26T11:03:37;101921.09;;;0.98;58.95
48204;BME280;33994;50.998;5.864;2023-02-26T11:06:44;101929.63;;;0.97;58.20
48204;BME280;33994;50.998;5.864;2023-02-26T11:09:49;101937.56;;;1.01;58.22
48204;BME280;33994;50.998;5.864;2023-02-26T11:12:52;101928.38;;;1.08;58.91
48204;BME280;33994;50.998;5.864;2023-02-26T11:15:57;101928.88;;;1.20;58.61
48204;BME280;33994;50.998;5.864;2023-02-26T11:19:01;101929.28;;;1.29;57.88
48204;BME280;33994;50.998;5.864;2023-02-26T11:22:12;101931.16;;;1.33;56.58
48204;BME280;33994;50.998;5.864;2023-02-26T11:25:19;101928.63;;;1.35;56.57
48204;BME280;33994;50.998;5.864;2023-02-26T11:28:30;101933.91;;;1.38;56.40
48204;BME280;33994;50.998;5.864;2023-02-26T11:31:33;101930.63;;;1.42;56.13
48204;BME280;33994;50.998;5.864;2023-02-26T11:34:36;101920.50;;;1.47;55.89
48204;BME280;33994;50.998;5.864;2023-02-26T11:37:41;101923.16;;;1.48;55.65
48204;BME280;33994;50.998;5.864;2023-02-26T11:40:53;101922.56;;;1.55;55.58
48204;BME280;33994;50.998;5.864;2023-02-26T11:44:00;101921.09;;;1.62;55.42
48204;BME280;33994;50.998;5.864;2023-02-26T11:47:06;101922.94;;;1.64;53.29
48204;BME280;33994;50.998;5.864;2023-02-26T11:50:13;101910.97;;;1.66;53.85
48204;BME280;33994;50.998;5.864;2023-02-26T11:53:19;101914.66;;;1.73;54.19
48204;BME280;33994;50.998;5.864;2023-02-26T11:56:29;101910.56;;;1.78;53.76
48204;BME280;33994;50.998;5.864;2023-02-26T11:59:33;101920.13;;;1.81;53.36
48204;BME280;33994;50.998;5.864;2023-02-26T12:02:38;101910.13;;;1.90;52.56
48204;BME280;33994;50.998;5.864;2023-02-26T12:05:41;101919.06;;;1.98;54.21
48204;BME280;33994;50.998;5.864;2023-02-26T12:08:45;101911.25;;;1.97;52.61
48204;BME280;33994;50.998;5.864;2023-02-26T12:12:08;101924.97;;;1.96;53.32
48204;BME280;33994;50.998;5.864;2023-02-26T12:15:21;101910.75;;;1.83;53.34
48204;BME280;33994;50.998;5.864;2023-02-26T12:18:39;101921.25;;;1.87;53.85
48204;BME280;33994;50.998;5.864;2023-02-26T12:21:58;101909.91;;;1.84;54.39
48204;BME280;33994;50.998;5.864;2023-02-26T12:25:33;101922.69;;;1.81;54.06
48204;BME280;33994;50.998;5.864;2023-02-26T12:28:47;101905.63;;;1.84;54.81
48204;BME280;33994;50.998;5.864;2023-02-26T12:32:11;101920.53;;;1.91;52.68
48204;BME280;33994;50.998;5.864;2023-02-26T12:35:33;101913.53;;;1.89;52.91
48204;BME280;33994;50.998;5.864;2023-02-26T12:38:45;101910.97;;;1.89;53.49
48204;BME280;33994;50.998;5.864;2023-02-26T12:42:01;101923.94;;;1.90;54.23
48204;BME280;33994;50.998;5.864;2023-02-26T12:45:23;101922.25;;;1.91;54.21
48204;BME280;33994;50.998;5.864;2023-02-26T12:48:42;101906.97;;;1.97;54.00
48204;BME280;33994;50.998;5.864;2023-02-26T12:52:03;101917.81;;;2.11;52.86
48204;BME280;33994;50.998;5.864;2023-02-26T12:55:21;101907.66;;;2.15;52.31
48204;BME280;33994;50.998;5.864;2023-02-26T12:58:37;101913.69;;;2.16;49.62
48204;BME280;33994;50.998;5.864;2023-02-26T13:01:56;101909.31;;;2.13;49.43
48204;BME280;33994;50.998;5.864;2023-02-26T13:05:18;101926.44;;;2.11;48.01
48204;BME280;33994;50.998;5.864;2023-02-26T13:08:30;101907.53;;;2.12;48.60
48204;BME280;33994;50.998;5.864;2023-02-26T13:11:47;101902.44;;;2.14;48.29
48204;BME280;33994;50.998;5.864;2023-02-26T13:15:00;101909.63;;;2.23;48.76
48204;BME280;33994;50.998;5.864;2023-02-26T13:18:13;101923.50;;;2.25;48.71
48204;BME280;33994;50.998;5.864;2023-02-26T13:21:24;101910.31;;;2.17;47.15
48204;BME280;33994;50.998;5.864;2023-02-26T13:24:33;101922.44;;;2.20;47.72
48204;BME280;33994;50.998;5.864;2023-02-26T13:27:38;101916.38;;;2.19;47.94
48204;BME280;33994;50.998;5.864;2023-02-26T13:30:47;101917.34;;;2.21;48.32
48204;BME280;33994;50.998;5.864;2023-02-26T13:33:54;101908.81;;;2.24;48.44
48204;BME280;33994;50.998;5.864;2023-02-26T13:36:58;101922.69;;;2.27;48.66
48204;BME280;33994;50.998;5.864;2023-02-26T13:40:29;101925.38;;;2.29;48.11
48204;BME280;33994;50.998;5.864;2023-02-26T13:43:49;101921.00;;;2.28;47.77
48204;BME280;33994;50.998;5.864;2023-02-26T13:47:10;101909.63;;;2.23;47.34
48204;BME280;33994;50.998;5.864;2023-02-26T13:50:26;101914.91;;;2.26;47.26
48204;BME280;33994;50.998;5.864;2023-02-26T13:53:47;101906.34;;;2.27;47.12
48204;BME280;33994;50.998;5.864;2023-02-26T13:57:05;101904.53;;;2.24;46.60
48204;BME280;33994;50.998;5.864;2023-02-26T14:00:24;101920.09;;;2.26;46.68
48204;BME280;33994;50.998;5.864;2023-02-26T14:03:32;101914.03;;;2.25;46.48
48204;BME280;33994;50.998;5.864;2023-02-26T14:06:44;101903.00;;;2.29;46.56
48204;BME280;33994;50.998;5.864;2023-02-26T14:09:56;101910.63;;;2.26;47.03
48204;BME280;33994;50.998;5.864;2023-02-26T14:13:13;101897.75;;;2.28;46.95
48204;BME280;33994;50.998;5.864;2023-02-26T14:16:21;101913.38;;;2.31;47.00
48204;BME280;33994;50.998;5.864;2023-02-26T14:19:30;101904.78;;;2.32;46.62
48204;BME280;33994;50.998;5.864;2023-02-26T14:22:36;101905.03;;;2.38;47.31
48204;BME280;33994;50.998;5.864;2023-02-26T14:25:40;101903.47;;;2.43;47.78
48204;BME280;33994;50.998;5.864;2023-02-26T14:28:56;101897.66;;;2.49;47.88
48204;BME280;33994;50.998;5.864;2023-02-26T14:32:10;101913.91;;;2.46;48.13
48204;BME280;33994;50.998;5.864;2023-02-26T14:35:17;101918.16;;;2.44;48.62
48204;BME280;33994;50.998;5.864;2023-02-26T14:38:26;101911.94;;;2.39;48.36
48204;BME280;33994;50.998;5.864;2023-02-26T14:41:32;101914.53;;;2.39;48.63
48204;BME280;33994;50.998;5.864;2023-02-26T14:44:40;101912.06;;;2.42;48.48
48204;BME280;33994;50.998;5.864;2023-02-26T14:47:45;101918.16;;;2.44;47.91
48204;BME280;33994;50.998;5.864;2023-02-26T14:50:54;101920.75;;;2.44;47.70
48204;BME280;33994;50.998;5.864;2023-02-26T14:54:25;101919.03;;;2.45;47.12
48204;BME280;33994;50.998;5.864;2023-02-26T14:57:37;101919.91;;;2.45;47.51
48204;BME280;33994;50.998;5.864;2023-02-26T15:00:48;101914.88;;;2.48;46.68
48204;BME280;33994;50.998;5.864;2023-02-26T15:07:51;101912.16;;;2.45;46.32
48204;BME280;33994;50.998;5.864;2023-02-26T15:11:18;101918.22;;;2.46;45.94
48204;BME280;33994;50.998;5.864;2023-02-26T15:14:47;101913.09;;;2.47;45.98
48204;BME280;33994;50.998;5.864;2023-02-26T15:18:04;101913.16;;;2.49;46.36
48204;BME280;33994;50.998;5.864;2023-02-26T15:21:15;101923.41;;;2.47;45.81
48204;BME280;33994;50.998;5.864;2023-02-26T15:24:20;101924.22;;;2.45;45.65
48204;BME280;33994;50.998;5.864;2023-02-26T15:27:29;101915.59;;;2.44;46.24
48204;BME280;33994;50.998;5.864;2023-02-26T15:30:33;101918.22;;;2.46;46.40
48204;BME280;33994;50.998;5.864;2023-02-26T15:33:37;101922.63;;;2.48;46.69
48204;BME280;33994;50.998;5.864;2023-02-26T15:36:43;101932.97;;;2.50;46.90
48204;BME280;33994;50.998;5.864;2023-02-26T15:39:48;101927.78;;;2.48;46.56
48204;BME280;33994;50.998;5.864;2023-02-26T15:42:54;101928.53;;;2.46;46.76
48204;BME280;33994;50.998;5.864;2023-02-26T15:45:58;101957.81;;;2.46;46.95
48204;BME280;33994;50.998;5.864;2023-02-26T15:49:05;101932.00;;;2.46;46.94
48204;BME280;33994;50.998;5.864;2023-02-26T15:52:13;101933.75;;;2.47;47.16
48204;BME280;33994;50.998;5.864;2023-02-26T15:55:18;101941.50;;;2.47;47.68
48204;BME280;33994;50.998;5.864;2023-02-26T15:58:32;101941.50;;;2.47;47.98
48204;BME280;33994;50.998;5.864;2023-02-26T16:01:39;101950.91;;;2.45;47.81
48204;BME280;33994;50.998;5.864;2023-02-26T16:04:42;101954.34;;;2.46;47.83
48204;BME280;33994;50.998;5.864;2023-02-26T16:07:46;101950.78;;;2.42;47.50
48204;BME280;33994;50.998;5.864;2023-02-26T16:10:49;101947.44;;;2.45;47.48
48204;BME280;33994;50.998;5.864;2023-02-26T16:13:54;101947.44;;;2.45;47.16
48204;BME280;33994;50.998;5.864;2023-02-26T16:16:58;101951.72;;;2.44;47.54
48204;BME280;33994;50.998;5.864;2023-02-26T16:20:03;101951.72;;;2.44;47.96
48204;BME280;33994;50.998;5.864;2023-02-26T16:23:11;101950.78;;;2.42;48.21
48204;BME280;33994;50.998;5.864;2023-02-26T16:26:20;101955.91;;;2.40;48.17
48204;BME280;33994;50.998;5.864;2023-02-26T16:29:27;101958.50;;;2.40;48.26
48204;BME280;33994;50.998;5.864;2023-02-26T16:32:33;101966.16;;;2.39;47.99
48204;BME280;33994;50.998;5.864;2023-02-26T16:35:40;101966.06;;;2.36;48.49